God — WDH3056 — position and weather

sailwx.info

Track history (hours):
 
Tides and Currents Weather Stations Pressure Air Temp Water Temp Dewpoint Dewpoint Depression Visibility Wind Speed Wind Dir Waves Ship Positions

God

Owner: Quality tug services LLC, broussard, LA. More information available from US FCC via Universal Licensing System and Coast Guard Vessel Documentation Center.

Last reported at 2017-Nov-16 12:45 UTC. Time now 2017-Nov-20 13:22 UTC.
Position N 30°04' W 094°03'.

Length 18 m; draft 3 m.

Type: Towing. MMSI: 367603820.

Date/timePositionNaut miles runAvg speedWind from/ knotsBaromVisibWave heightAir tempDewpointWater temp
2017-Nov-16 12:45N 30°04' W 094°03'0 0.0
2017-Nov-16 12:21N 30°04' W 094°03'0 0.0
2017-Nov-16 11:13N 30°04' W 094°03'0 0.0
2017-Nov-16 11:00N 30°04' W 094°03'0 0.0
2017-Nov-16 10:30N 30°04' W 094°03'0 0.0
2017-Nov-16 10:00N 30°04' W 094°03'4 0.6
2017-Nov-16 03:50N 30°01' W 094°01'1 1.9
2017-Nov-16 03:29N 30°01' W 094°00'1 1.7
2017-Nov-16 03:00N 30°01' W 093°59'16 1.7
2017-Nov-15 17:37N 30°04' W 093°41'0 2.4
2017-Nov-15 17:30N 30°04' W 093°40'1 2.4
2017-Nov-15 17:00N 30°04' W 093°39'1 2.4
2017-Nov-15 16:30N 30°04' W 093°38'1 2.1
2017-Nov-15 16:00N 30°04' W 093°36'1 2.0
2017-Nov-15 15:30N 30°04' W 093°35'1 1.8
2017-Nov-15 15:00N 30°04' W 093°34'1 1.8
2017-Nov-15 14:31N 30°04' W 093°33'1 1.8
2017-Nov-15 14:00N 30°04' W 093°32'1 1.9
2017-Nov-15 13:30N 30°04' W 093°31'1 1.9
2017-Nov-15 13:00N 30°04' W 093°30'1 1.9
2017-Nov-15 12:30N 30°04' W 093°29'1 1.9
2017-Nov-15 12:00N 30°04' W 093°28'1 2.0
2017-Nov-15 11:30N 30°04' W 093°27'1 2.0
2017-Nov-15 11:00N 30°04' W 093°25'1 1.9
2017-Nov-15 10:30N 30°04' W 093°24'1 2.0
2017-Nov-15 10:00N 30°04' W 093°23'1 2.2
2017-Nov-15 09:30N 30°04' W 093°22'1 2.1
2017-Nov-15 09:00N 30°04' W 093°21'1 2.0
2017-Nov-15 08:30N 30°05' W 093°20'1 1.9
2017-Nov-15 08:00N 30°06' W 093°20'1 1.7
2017-Nov-15 07:30N 30°06' W 093°20'1 1.7
2017-Nov-15 07:00N 30°07' W 093°20'1 2.0
2017-Nov-15 06:30N 30°08' W 093°20'1 2.1
2017-Nov-15 06:00N 30°09' W 093°20'1 2.2
2017-Nov-15 05:30N 30°10' W 093°19'1 2.2
2017-Nov-15 05:00N 30°11' W 093°18'1 2.2
2017-Nov-15 04:30N 30°12' W 093°17'1 2.2
2017-Nov-15 04:00N 30°12' W 093°16'1 2.0
2017-Nov-15 03:31N 30°13' W 093°16'1 1.0
2017-Nov-15 03:00N 30°14' W 093°15'0 0.0
2017-Nov-15 02:30N 30°14' W 093°15'0 0.0
2017-Nov-15 02:00N 30°14' W 093°15'0 0.0
2017-Nov-15 01:30N 30°14' W 093°15'0 0.0
2017-Nov-15 01:01N 30°14' W 093°15'2 4.1
2017-Nov-15 00:30N 30°12' W 093°17'4 7.2
2017-Nov-15 00:00N 30°09' W 093°20'4 7.2
2017-Nov-14 23:30N 30°06' W 093°20'3 6.2
2017-Nov-14 23:00N 30°04' W 093°22'4 7.1
2017-Nov-14 22:30N 30°04' W 093°26'4 7.4
2017-Nov-14 22:00N 30°04' W 093°30'  
Track history (hours):
 
Tides and Currents Weather Stations Pressure Air Temp Water Temp Dewpoint Dewpoint Depression Visibility Wind Speed Wind Dir Waves Ship Positions

God

Owner: Quality tug services LLC, broussard, LA. More information available from US FCC via Universal Licensing System and Coast Guard Vessel Documentation Center.

Last reported at 2017-Nov-16 12:45 UTC. Time now 2017-Nov-20 13:22 UTC.
Position N 30°04' W 094°03'.

Length 18 m; draft 3 m.

Type: Towing. MMSI: 367603820.

Date/timePositionNaut miles runAvg speedWind from/ knotsBaromVisibWave heightAir tempDewpointWater temp
2017-Nov-16 12:45N 30°04' W 094°03'0 0.0
2017-Nov-16 12:21N 30°04' W 094°03'0 0.0
2017-Nov-16 11:13N 30°04' W 094°03'0 0.0
2017-Nov-16 11:00N 30°04' W 094°03'0 0.0
2017-Nov-16 10:30N 30°04' W 094°03'0 0.0
2017-Nov-16 10:00N 30°04' W 094°03'4 0.6
2017-Nov-16 03:50N 30°01' W 094°01'1 1.9
2017-Nov-16 03:29N 30°01' W 094°00'1 1.7
2017-Nov-16 03:00N 30°01' W 093°59'16 1.7
2017-Nov-15 17:37N 30°04' W 093°41'0 2.4
2017-Nov-15 17:30N 30°04' W 093°40'1 2.4
2017-Nov-15 17:00N 30°04' W 093°39'1 2.4
2017-Nov-15 16:30N 30°04' W 093°38'1 2.1
2017-Nov-15 16:00N 30°04' W 093°36'1 2.0
2017-Nov-15 15:30N 30°04' W 093°35'1 1.8
2017-Nov-15 15:00N 30°04' W 093°34'1 1.8
2017-Nov-15 14:31N 30°04' W 093°33'1 1.8
2017-Nov-15 14:00N 30°04' W 093°32'1 1.9
2017-Nov-15 13:30N 30°04' W 093°31'1 1.9
2017-Nov-15 13:00N 30°04' W 093°30'1 1.9
2017-Nov-15 12:30N 30°04' W 093°29'1 1.9
2017-Nov-15 12:00N 30°04' W 093°28'1 2.0
2017-Nov-15 11:30N 30°04' W 093°27'1 2.0
2017-Nov-15 11:00N 30°04' W 093°25'1 1.9
2017-Nov-15 10:30N 30°04' W 093°24'1 2.0
2017-Nov-15 10:00N 30°04' W 093°23'1 2.2
2017-Nov-15 09:30N 30°04' W 093°22'1 2.1
2017-Nov-15 09:00N 30°04' W 093°21'1 2.0
2017-Nov-15 08:30N 30°05' W 093°20'1 1.9
2017-Nov-15 08:00N 30°06' W 093°20'1 1.7
2017-Nov-15 07:30N 30°06' W 093°20'1 1.7
2017-Nov-15 07:00N 30°07' W 093°20'1 2.0
2017-Nov-15 06:30N 30°08' W 093°20'1 2.1
2017-Nov-15 06:00N 30°09' W 093°20'1 2.2
2017-Nov-15 05:30N 30°10' W 093°19'1 2.2
2017-Nov-15 05:00N 30°11' W 093°18'1 2.2
2017-Nov-15 04:30N 30°12' W 093°17'1 2.2
2017-Nov-15 04:00N 30°12' W 093°16'1 2.0
2017-Nov-15 03:31N 30°13' W 093°16'1 1.0
2017-Nov-15 03:00N 30°14' W 093°15'0 0.0
2017-Nov-15 02:30N 30°14' W 093°15'0 0.0
2017-Nov-15 02:00N 30°14' W 093°15'0 0.0
2017-Nov-15 01:30N 30°14' W 093°15'0 0.0
2017-Nov-15 01:01N 30°14' W 093°15'2 4.1
2017-Nov-15 00:30N 30°12' W 093°17'4 7.2
2017-Nov-15 00:00N 30°09' W 093°20'4 7.2
2017-Nov-14 23:30N 30°06' W 093°20'3 6.2
2017-Nov-14 23:00N 30°04' W 093°22'4 7.1
2017-Nov-14 22:30N 30°04' W 093°26'4 7.4
2017-Nov-14 22:00N 30°04' W 093°30'  

Dump ship's entire track history